Time;durP1;ratioP1;P1;durP2;ratioP2;P2;SDS_P1;SDS_P2;PMS_P1;PMS_P2;Temp;Humidity;BMP_temperature;BMP_pressure;BME280_temperature;BME280_humidity;BME280_pressure;Samples;Min_cycle;Max_cycle;Signal;HPM_P1;HPM_P2
2022/03/31 00:00:23;;;;;;;9.65;4.85;;;4.40;95.20;;;;;;5014403;28;20182;-58
2022/03/31 00:02:50;;;;;;;7.88;4.30;;;4.40;95.20;;;;;;5014504;28;20299;-58
2022/03/31 00:05:17;;;;;;;6.32;3.90;;;4.40;95.10;;;;;;5014693;28;20200;-59
2022/03/31 00:07:51;;;;;;;5.13;4.00;;;4.40;95.00;;;;;;5013977;28;20235;-58
2022/03/31 00:10:26;;;;;;;7.45;4.47;;;4.40;95.10;;;;;;5013342;28;20212;-58
2022/03/31 00:12:56;;;;;;;6.72;4.05;;;4.40;95.00;;;;;;5013366;28;20580;-58
2022/03/31 00:15:24;;;;;;;6.32;4.25;;;4.40;94.90;;;;;;5013746;28;20272;-59
2022/03/31 00:17:51;;;;;;;8.43;4.85;;;4.40;94.80;;;;;;5014171;28;20580;-58
2022/03/31 00:20:19;;;;;;;6.47;3.83;;;4.40;94.80;;;;;;5013607;28;20206;-59
2022/03/31 00:22:46;;;;;;;6.93;5.38;;;4.30;94.80;;;;;;5013807;28;20210;-58
2022/03/31 00:25:13;;;;;;;6.28;4.32;;;4.30;94.70;;;;;;5015702;28;20214;-59
2022/03/31 00:27:41;;;;;;;9.68;5.60;;;4.30;94.60;;;;;;5017372;28;20250;-58
2022/03/31 00:30:14;;;;;;;5.13;3.80;;;4.30;94.70;;;;;;5017422;28;20683;-58
2022/03/31 00:32:41;;;;;;;7.80;5.18;;;4.30;94.70;;;;;;5017422;28;20195;-58
2022/03/31 00:35:12;;;;;;;5.82;4.03;;;4.30;94.70;;;;;;5017604;28;20227;-58
2022/03/31 00:37:40;;;;;;;6.35;5.20;;;4.30;94.70;;;;;;5018448;28;20229;-58
2022/03/31 00:40:09;;;;;;;6.43;5.10;;;4.30;94.70;;;;;;5017930;28;20214;-59
2022/03/31 00:42:41;;;;;;;10.63;4.90;;;4.30;94.70;;;;;;5017340;28;20208;-58
2022/03/31 00:45:14;;;;;;;8.27;4.22;;;4.30;94.60;;;;;;5017811;28;20188;-58
2022/03/31 00:47:41;;;;;;;7.57;4.70;;;4.30;94.50;;;;;;5017465;28;20227;-58
2022/03/31 00:50:11;;;;;;;7.15;4.25;;;4.30;94.40;;;;;;5018287;28;20205;-58
2022/03/31 00:52:38;;;;;;;6.18;4.00;;;4.40;94.50;;;;;;5017735;28;20242;-58
2022/03/31 00:55:06;;;;;;;10.30;4.45;;;4.40;94.40;;;;;;5017152;28;20227;-59
2022/03/31 00:57:34;;;;;;;6.53;4.78;;;4.40;94.30;;;;;;5016827;28;20229;-59
2022/03/31 01:00:02;;;;;;;10.68;4.70;;;4.40;94.20;;;;;;5016906;28;20204;-58
2022/03/31 01:02:31;;;;;;;5.50;4.78;;;4.40;94.10;;;;;;5017136;28;20214;-59
2022/03/31 01:05:00;;;;;;;8.27;4.60;;;4.40;94.00;;;;;;5017027;28;20207;-58
2022/03/31 01:07:28;;;;;;;7.82;4.78;;;4.30;93.90;;;;;;5016797;28;20223;-58
2022/03/31 01:09:55;;;;;;;5.30;4.05;;;4.30;93.80;;;;;;5016735;28;20204;-58
2022/03/31 01:12:23;;;;;;;8.02;4.70;;;4.30;93.80;;;;;;5016466;28;20212;-58
2022/03/31 01:15:05;;;;;;;6.13;4.85;;;4.30;93.90;;;;;;5016319;28;20745;-59
2022/03/31 01:17:34;;;;;;;6.75;5.00;;;4.30;93.90;;;;;;5016246;28;20723;-58
2022/03/31 01:20:01;;;;;;;10.27;4.50;;;4.20;93.90;;;;;;5016256;28;20203;-57
2022/03/31 01:22:31;;;;;;;7.07;4.80;;;4.20;93.90;;;;;;5016562;28;20203;-58
2022/03/31 01:25:01;;;;;;;13.20;5.40;;;4.20;94.00;;;;;;5016543;28;20591;-59
2022/03/31 01:27:28;;;;;;;7.28;5.18;;;4.10;94.00;;;;;;5016160;28;20238;-58
2022/03/31 01:29:55;;;;;;;9.85;5.00;;;4.10;94.10;;;;;;5016232;28;20203;-58
2022/03/31 01:32:24;;;;;;;9.57;6.25;;;4.00;94.20;;;;;;5016616;28;20694;-59
2022/03/31 01:34:51;;;;;;;6.82;4.60;;;4.00;94.30;;;;;;5017605;28;20564;-58
2022/03/31 01:37:18;;;;;;;8.63;5.05;;;4.00;94.40;;;;;;5015781;28;20703;-58
2022/03/31 01:39:45;;;;;;;6.78;5.85;;;4.00;94.50;;;;;;5016379;28;20203;-58
2022/03/31 01:42:14;;;;;;;7.57;5.13;;;3.90;94.50;;;;;;5016136;28;20210;-58
2022/03/31 01:44:41;;;;;;;8.88;4.90;;;3.90;94.60;;;;;;5016257;28;20199;-58
2022/03/31 01:47:08;;;;;;;10.90;5.47;;;3.80;94.70;;;;;;5016000;28;20223;-58
2022/03/31 01:49:37;;;;;;;7.25;5.00;;;3.80;94.70;;;;;;5016408;28;20235;-58
2022/03/31 01:52:06;;;;;;;6.15;5.15;;;3.80;94.80;;;;;;5016473;28;20235;-58
2022/03/31 01:54:34;;;;;;;8.25;4.90;;;3.70;94.90;;;;;;5022437;28;20242;-58
2022/03/31 01:57:01;;;;;;;9.75;6.00;;;3.70;95.10;;;;;;5021526;28;20234;-58
2022/03/31 01:59:34;;;;;;;9.70;5.68;;;3.70;95.30;;;;;;5019199;28;20211;-58
2022/03/31 02:02:02;;;;;;;6.90;5.40;;;3.70;95.30;;;;;;5018586;28;20235;-58
2022/03/31 02:04:29;;;;;;;8.50;4.90;;;3.70;95.40;;;;;;5018463;28;20202;-57
2022/03/31 02:06:56;;;;;;;11.45;5.93;;;3.70;95.50;;;;;;5019508;28;20230;-59
2022/03/31 02:09:23;;;;;;;14.05;6.85;;;3.70;95.50;;;;;;5019646;28;20210;-59
2022/03/31 02:11:52;;;;;;;10.02;5.47;;;3.70;95.60;;;;;;5019530;28;20672;-57
2022/03/31 02:14:19;;;;;;;8.25;5.88;;;3.60;95.70;;;;;;5016834;28;20273;-58
2022/03/31 02:16:48;;;;;;;6.88;5.03;;;3.60;95.80;;;;;;5015540;28;20253;-58
2022/03/31 02:19:15;;;;;;;8.00;5.32;;;3.60;96.00;;;;;;5015306;28;20211;-59
2022/03/31 02:21:42;;;;;;;9.57;5.75;;;3.60;96.20;;;;;;5015289;28;20214;-57
2022/03/31 02:24:09;;;;;;;7.80;6.75;;;3.60;96.30;;;;;;5015222;28;20214;-58
2022/03/31 02:26:37;;;;;;;11.00;6.57;;;3.50;96.40;;;;;;5015381;28;20373;-58
2022/03/31 02:29:05;;;;;;;9.07;5.75;;;3.50;96.60;;;;;;5014969;28;20207;-58
2022/03/31 02:31:33;;;;;;;11.27;6.13;;;3.50;96.70;;;;;;5015495;28;20218;-57
2022/03/31 02:34:01;;;;;;;9.18;6.97;;;3.50;97.00;;;;;;5014980;28;20199;-58
2022/03/31 02:36:28;;;;;;;8.65;6.65;;;3.50;97.10;;;;;;5014954;28;20667;-58
2022/03/31 02:38:55;;;;;;;9.80;5.55;;;3.50;97.20;;;;;;5016203;28;20230;-58
2022/03/31 02:41:22;;;;;;;14.07;7.50;;;3.50;97.40;;;;;;5017277;28;20578;-58
2022/03/31 02:43:50;;;;;;;12.70;6.93;;;3.50;97.60;;;;;;5016973;28;20206;-59
2022/03/31 02:46:17;;;;;;;11.43;7.20;;;3.50;97.70;;;;;;5016669;28;20206;-58
2022/03/31 02:48:44;;;;;;;10.73;7.65;;;3.50;97.90;;;;;;5015468;28;20227;-58
2022/03/31 02:51:12;;;;;;;12.85;7.75;;;3.50;98.00;;;;;;5016915;28;20206;-57
2022/03/31 02:56:23;;;;;;;11.75;8.20;;;3.50;98.40;;;;;;5016554;28;20210;-58
2022/03/31 02:58:50;;;;;;;11.32;8.13;;;3.50;98.60;;;;;;5016463;28;20222;-58
2022/03/31 03:01:19;;;;;;;11.43;7.78;;;3.50;99.00;;;;;;5015389;28;20215;-57
2022/03/31 03:03:46;;;;;;;15.27;9.55;;;3.60;99.20;;;;;;5015171;28;20554;-60
2022/03/31 03:06:15;;;;;;;11.02;9.25;;;3.60;99.40;;;;;;5014760;28;20667;-57
2022/03/31 03:08:42;;;;;;;14.13;8.90;;;3.60;99.50;;;;;;5014676;28;20223;-57
2022/03/31 03:11:09;;;;;;;16.13;9.35;;;3.60;99.80;;;;;;5014813;28;20204;-56
2022/03/31 03:13:36;;;;;;;12.15;9.07;;;3.60;99.90;;;;;;5015398;28;20231;-58
2022/03/31 03:16:08;;;;;;;14.77;9.45;;;3.60;99.90;;;;;;5015409;28;20230;-58
2022/03/31 03:18:35;;;;;;;14.00;9.93;;;3.70;99.90;;;;;;5014334;28;20768;-58
2022/03/31 03:21:04;;;;;;;13.25;9.88;;;3.70;99.90;;;;;;5014811;28;20203;-58
2022/03/31 03:23:33;;;;;;;15.20;10.00;;;3.70;99.90;;;;;;5020607;28;20234;-58
2022/03/31 03:26:01;;;;;;;12.93;9.60;;;3.70;99.90;;;;;;5019039;28;20629;-58
2022/03/31 03:28:29;;;;;;;14.82;10.35;;;3.70;99.90;;;;;;5014784;28;20281;-58
2022/03/31 03:30:56;;;;;;;14.07;10.07;;;3.70;99.90;;;;;;5014741;28;20260;-58
2022/03/31 03:33:24;;;;;;;13.15;9.88;;;3.70;99.90;;;;;;5014259;28;20206;-58
2022/03/31 03:35:51;;;;;;;15.52;10.32;;;3.70;99.90;;;;;;5014013;28;20231;-58
2022/03/31 03:38:18;;;;;;;13.40;10.75;;;3.80;99.90;;;;;;5013788;28;20260;-58
2022/03/31 03:40:46;;;;;;;14.50;11.90;;;3.80;99.90;;;;;;5014147;28;20204;-58
2022/03/31 03:43:13;;;;;;;14.65;10.68;;;3.80;99.90;;;;;;5013769;28;20215;-58
2022/03/31 03:45:41;;;;;;;17.00;11.82;;;3.80;99.90;;;;;;5013868;28;20199;-58
2022/03/31 03:48:10;;;;;;;16.55;10.95;;;3.80;99.90;;;;;;5013848;28;20227;-58
2022/03/31 03:50:38;;;;;;;14.32;10.90;;;3.80;99.90;;;;;;5014613;28;20330;-58
2022/03/31 03:53:05;;;;;;;15.73;10.50;;;3.80;99.90;;;;;;5024024;28;20207;-58
2022/03/31 03:55:34;;;;;;;13.38;10.38;;;3.80;99.90;;;;;;5023909;28;20237;-57
2022/03/31 03:58:03;;;;;;;18.23;12.05;;;3.80;99.90;;;;;;5023198;28;20227;-58
2022/03/31 04:00:30;;;;;;;15.05;11.73;;;3.80;99.90;;;;;;5019304;28;20226;-57
2022/03/31 04:02:57;;;;;;;14.05;11.80;;;3.80;99.90;;;;;;5019462;28;20226;-58
2022/03/31 04:05:24;;;;;;;17.88;11.98;;;3.80;99.90;;;;;;5016105;28;20615;-58
2022/03/31 04:09:32;;;;;;;17.50;12.60;;;3.80;99.90;;;;;;5091870;27;20579;-58
2022/03/31 04:11:59;;;;;;;14.65;12.25;;;3.80;99.90;;;;;;5091739;28;20200;-57
2022/03/31 04:14:26;;;;;;;18.33;11.07;;;3.80;99.90;;;;;;5090846;28;20664;-57
2022/03/31 04:16:55;;;;;;;15.38;11.73;;;3.80;99.90;;;;;;5090944;28;20541;-58
2022/03/31 04:19:22;;;;;;;13.98;11.60;;;3.80;99.90;;;;;;5090776;28;20279;-57
2022/03/31 04:21:50;;;;;;;16.88;12.65;;;3.80;99.90;;;;;;5102093;28;20204;-58
2022/03/31 04:24:17;;;;;;;14.98;12.13;;;3.80;99.90;;;;;;5108566;28;20197;-57
2022/03/31 04:26:45;;;;;;;14.70;11.40;;;3.80;99.90;;;;;;5108021;28;20645;-58
2022/03/31 04:29:12;;;;;;;15.70;12.63;;;3.90;99.90;;;;;;5109644;22;20678;-50
2022/03/31 04:31:42;;;;;;;21.73;13.77;;;3.90;99.90;;;;;;5049885;28;20198;-51
2022/03/31 04:34:10;;;;;;;19.83;14.05;;;3.90;99.90;;;;;;5049840;28;20578;-51
2022/03/31 04:36:37;;;;;;;19.50;14.98;;;4.00;99.90;;;;;;5049874;28;20197;-52
2022/03/31 04:39:05;;;;;;;23.45;17.00;;;4.00;99.90;;;;;;5050076;28;20245;-51
2022/03/31 04:41:32;;;;;;;28.90;19.38;;;4.00;99.90;;;;;;5050023;28;20248;-51
2022/03/31 04:44:01;;;;;;;30.20;18.85;;;4.00;99.90;;;;;;5049957;28;20205;-51
2022/03/31 04:46:28;;;;;;;30.48;20.67;;;4.10;99.90;;;;;;5050306;28;20217;-51
2022/03/31 04:48:55;;;;;;;28.40;21.60;;;4.20;99.90;;;;;;5050523;28;20229;-50
2022/03/31 04:51:22;;;;;;;25.83;19.25;;;4.20;99.90;;;;;;5049808;28;20206;-51
2022/03/31 04:53:49;;;;;;;29.63;21.38;;;4.20;99.90;;;;;;5050566;28;20579;-51
2022/03/31 04:56:17;;;;;;;31.75;21.10;;;4.30;99.90;;;;;;5050112;28;20207;-50
2022/03/31 04:58:44;;;;;;;31.10;20.55;;;4.30;99.90;;;;;;5049892;28;20569;-50
2022/03/31 05:01:13;;;;;;;30.70;21.27;;;4.30;99.90;;;;;;5049909;28;20198;-50
2022/03/31 05:03:41;;;;;;;35.42;21.33;;;4.40;99.90;;;;;;5050131;28;20693;-50
2022/03/31 05:06:08;;;;;;;31.40;20.40;;;4.40;99.90;;;;;;5050813;28;20202;-50
2022/03/31 05:08:36;;;;;;;29.77;21.75;;;4.50;99.90;;;;;;5049451;28;20227;-49
2022/03/31 05:11:03;;;;;;;28.80;21.50;;;4.50;99.90;;;;;;5049819;28;20228;-50
2022/03/31 05:13:30;;;;;;;33.10;22.77;;;4.50;99.90;;;;;;5049667;28;20248;-50
2022/03/31 05:15:58;;;;;;;31.38;22.52;;;4.50;99.90;;;;;;5049445;28;20240;-49
2022/03/31 05:18:26;;;;;;;37.90;22.23;;;4.50;99.90;;;;;;5050759;28;20310;-49
2022/03/31 05:20:54;;;;;;;31.75;23.95;;;4.60;99.90;;;;;;5037326;28;20203;-50
2022/03/31 05:23:21;;;;;;;29.30;21.48;;;4.60;99.90;;;;;;5036722;28;20206;-49
2022/03/31 05:25:49;;;;;;;29.23;22.15;;;4.60;99.90;;;;;;5037661;28;20209;-49
2022/03/31 05:28:16;;;;;;;24.40;18.85;;;4.60;99.90;;;;;;5037635;28;20237;-51
2022/03/31 05:30:44;;;;;;;25.77;18.90;;;4.60;99.90;;;;;;5035893;28;20191;-50
2022/03/31 05:33:12;;;;;;;23.52;16.02;;;4.60;99.90;;;;;;5036067;28;20199;-50
2022/03/31 05:35:40;;;;;;;22.42;16.50;;;4.60;99.90;;;;;;5035962;28;20208;-51
2022/03/31 05:38:08;;;;;;;25.52;17.35;;;4.60;99.90;;;;;;5035532;28;20781;-50
2022/03/31 05:40:35;;;;;;;23.48;16.15;;;4.60;99.90;;;;;;5036177;28;20230;-50
2022/03/31 05:43:02;;;;;;;21.08;16.27;;;4.60;99.90;;;;;;5035929;28;20209;-50
2022/03/31 05:45:30;;;;;;;21.38;16.45;;;4.60;99.90;;;;;;5036372;28;20290;-50
2022/03/31 05:47:57;;;;;;;24.55;16.98;;;4.70;99.90;;;;;;5035669;28;20222;-50
2022/03/31 05:50:25;;;;;;;22.13;16.95;;;4.70;99.90;;;;;;5035951;28;20758;-50
2022/03/31 05:52:53;;;;;;;25.75;18.55;;;4.80;99.90;;;;;;5036001;28;20203;-51
2022/03/31 05:55:21;;;;;;;25.48;18.05;;;4.80;99.90;;;;;;5036085;28;20206;-50
2022/03/31 05:57:48;;;;;;;27.48;18.42;;;4.80;99.90;;;;;;5036497;28;20230;-50
2022/03/31 06:00:18;;;;;;;28.88;20.55;;;4.80;99.90;;;;;;5036047;28;20326;-50
2022/03/31 06:02:46;;;;;;;32.00;20.00;;;4.80;99.90;;;;;;5035572;28;20702;-51
2022/03/31 06:05:14;;;;;;;29.60;20.48;;;4.80;99.90;;;;;;5035128;28;20203;-51
2022/03/31 06:07:41;;;;;;;24.58;19.88;;;4.80;99.90;;;;;;5034660;28;20204;-51
2022/03/31 06:10:10;;;;;;;26.75;20.35;;;4.80;99.90;;;;;;5035185;28;20227;-50
2022/03/31 06:12:37;;;;;;;25.30;19.25;;;4.80;99.90;;;;;;5034903;28;20198;-51
2022/03/31 06:15:06;;;;;;;28.85;19.80;;;4.80;99.90;;;;;;5034751;28;20199;-51
2022/03/31 06:17:33;;;;;;;30.05;17.98;;;4.80;99.90;;;;;;5035053;28;20525;-51
2022/03/31 06:20:00;;;;;;;24.27;18.58;;;4.80;99.90;;;;;;5034766;28;20230;-51
2022/03/31 06:22:27;;;;;;;24.90;18.15;;;4.80;99.90;;;;;;5035629;28;20234;-51
2022/03/31 06:24:54;;;;;;;28.00;21.65;;;4.80;99.90;;;;;;5031737;28;20687;-52
2022/03/31 06:27:23;;;;;;;25.83;17.92;;;4.80;99.90;;;;;;5034018;28;20219;-52
2022/03/31 06:29:52;;;;;;;21.13;16.52;;;4.80;99.90;;;;;;5034053;28;20234;-52
2022/03/31 06:32:20;;;;;;;27.08;19.00;;;4.80;99.90;;;;;;5032799;28;20795;-52
2022/03/31 06:34:47;;;;;;;22.13;19.05;;;4.80;99.90;;;;;;5034522;28;20203;-52
2022/03/31 06:37:14;;;;;;;25.38;19.73;;;4.80;99.90;;;;;;5033609;28;20202;-52
2022/03/31 06:39:41;;;;;;;26.88;19.73;;;4.80;99.90;;;;;;5034017;28;20444;-52
2022/03/31 06:42:08;;;;;;;30.55;20.55;;;4.80;99.90;;;;;;5033913;28;20546;-52
2022/03/31 06:44:37;;;;;;;28.38;20.63;;;4.80;99.90;;;;;;5033519;28;20206;-53
2022/03/31 06:47:05;;;;;;;27.95;20.10;;;4.80;99.90;;;;;;5034249;28;20209;-53
2022/03/31 06:49:34;;;;;;;31.63;21.08;;;4.80;99.90;;;;;;5033974;28;20692;-52
2022/03/31 06:52:01;;;;;;;29.33;21.25;;;4.80;99.90;;;;;;5033309;28;20682;-51
2022/03/31 06:54:28;;;;;;;31.35;21.58;;;4.80;99.90;;;;;;5033874;28;20202;-52
2022/03/31 06:56:55;;;;;;;27.35;20.83;;;4.90;99.90;;;;;;5033723;28;20210;-50
2022/03/31 06:59:22;;;;;;;27.65;20.50;;;4.90;99.90;;;;;;5033904;28;20218;-52
2022/03/31 07:01:51;;;;;;;33.20;21.05;;;4.90;99.90;;;;;;5033107;28;20238;-56
2022/03/31 07:04:18;;;;;;;27.75;20.17;;;4.90;99.70;;;;;;5034848;28;20220;-54
2022/03/31 07:06:45;;;;;;;28.88;19.85;;;4.90;99.50;;;;;;5036361;28;20308;-52
2022/03/31 07:09:12;;;;;;;28.10;18.25;;;4.90;99.30;;;;;;5036956;28;20222;-52
2022/03/31 07:11:39;;;;;;;28.52;17.95;;;4.90;99.40;;;;;;5034581;28;20217;-53
2022/03/31 07:14:06;;;;;;;24.48;15.95;;;5.00;99.20;;;;;;5034664;28;20215;-51
2022/03/31 07:16:34;;;;;;;23.02;15.75;;;5.00;99.00;;;;;;5034466;28;20203;-52
2022/03/31 07:19:03;;;;;;;22.38;14.85;;;5.00;98.90;;;;;;5034738;28;20223;-52
2022/03/31 07:21:30;;;;;;;22.42;15.50;;;5.10;98.70;;;;;;5036775;28;20211;-54
2022/03/31 07:23:57;;;;;;;21.67;13.32;;;5.20;98.70;;;;;;5034290;28;20204;-52
2022/03/31 07:26:25;;;;;;;15.13;10.90;;;5.30;98.40;;;;;;5032732;28;20203;-53
2022/03/31 07:28:52;;;;;;;20.48;12.25;;;5.30;97.80;;;;;;5033330;28;20252;-54
2022/03/31 07:31:19;;;;;;;12.20;11.00;;;5.40;97.40;;;;;;5033248;28;20210;-52
2022/03/31 07:33:46;;;;;;;14.65;12.20;;;5.40;97.20;;;;;;5033456;28;20298;-53
2022/03/31 07:36:15;;;;;;;17.42;12.20;;;5.40;97.00;;;;;;5032260;28;20206;-53
2022/03/31 07:38:42;;;;;;;13.63;11.85;;;5.40;96.80;;;;;;5033235;28;20219;-52
2022/03/31 07:41:09;;;;;;;13.82;11.88;;;5.40;96.80;;;;;;5033455;28;20203;-54
2022/03/31 07:43:36;;;;;;;13.85;10.95;;;5.40;96.60;;;;;;5031583;28;20206;-53
2022/03/31 07:46:04;;;;;;;16.98;10.70;;;5.40;96.60;;;;;;5033555;28;20207;-51
2022/03/31 07:48:31;;;;;;;9.73;7.90;;;5.40;96.40;;;;;;5032758;28;20227;-53
2022/03/31 07:50:59;;;;;;;10.30;9.10;;;5.40;95.90;;;;;;5032130;28;20208;-53
2022/03/31 07:53:27;;;;;;;12.07;8.68;;;5.50;95.70;;;;;;5032019;28;20207;-54
2022/03/31 07:55:55;;;;;;;11.02;7.80;;;5.50;95.30;;;;;;5032828;28;20202;-52
2022/03/31 07:58:22;;;;;;;16.55;7.15;;;5.60;94.80;;;;;;5032739;28;20227;-54
2022/03/31 08:00:50;;;;;;;10.13;6.97;;;5.70;94.40;;;;;;5032537;28;20226;-53
2022/03/31 08:03:19;;;;;;;11.18;8.00;;;5.80;94.10;;;;;;5032864;28;20204;-54
2022/03/31 08:05:46;;;;;;;11.48;8.30;;;6.00;93.50;;;;;;5032441;28;20683;-52
2022/03/31 08:08:13;;;;;;;8.82;7.93;;;6.20;91.80;;;;;;5032348;28;20218;-53
2022/03/31 08:10:42;;;;;;;13.38;8.25;;;6.20;90.20;;;;;;5032819;28;20235;-53
2022/03/31 08:13:09;;;;;;;12.40;8.15;;;6.30;90.10;;;;;;5032840;28;20240;-54
2022/03/31 08:15:37;;;;;;;13.20;10.13;;;6.40;88.20;;;;;;5032708;28;20209;-54
2022/03/31 08:18:05;;;;;;;11.02;8.38;;;6.40;85.40;;;;;;5031798;28;20579;-54
2022/03/31 08:20:33;;;;;;;10.70;8.45;;;6.40;84.70;;;;;;5031539;28;20196;-53
2022/03/31 08:23:00;;;;;;;12.73;8.70;;;6.40;83.20;;;;;;5032869;28;20219;-54
2022/03/31 08:25:27;;;;;;;13.35;9.43;;;6.40;82.90;;;;;;5033796;28;20215;-55
2022/03/31 08:27:55;;;;;;;16.25;9.95;;;6.50;82.10;;;;;;5031601;28;20708;-54
2022/03/31 08:30:23;;;;;;;11.20;9.65;;;6.50;80.60;;;;;;5032247;28;20221;-54
2022/03/31 08:32:50;;;;;;;15.63;9.43;;;6.50;79.80;;;;;;5032269;28;20199;-56
2022/03/31 08:35:18;;;;;;;15.23;10.65;;;6.60;79.20;;;;;;5032305;28;20208;-55
2022/03/31 08:37:45;;;;;;;12.02;10.50;;;6.60;77.70;;;;;;5031090;28;20452;-53
2022/03/31 08:40:13;;;;;;;14.27;10.45;;;6.60;76.40;;;;;;5032041;28;20228;-54
2022/03/31 08:42:41;;;;;;;14.82;11.10;;;6.60;75.90;;;;;;5031716;28;20791;-53
2022/03/31 08:45:12;;;;;;;16.95;11.43;;;6.70;74.70;;;;;;5031690;28;20217;-54
2022/03/31 08:47:40;;;;;;;23.23;11.77;;;6.70;73.50;;;;;;5032340;28;20208;-55
2022/03/31 08:50:09;;;;;;;11.45;10.35;;;6.70;74.00;;;;;;5031023;28;20221;-52
2022/03/31 08:52:37;;;;;;;14.00;10.57;;;6.80;73.20;;;;;;5032095;28;20306;-53
2022/03/31 08:55:05;;;;;;;12.02;10.70;;;6.90;71.70;;;;;;5033876;28;20675;-53
2022/03/31 08:57:40;;;;;;;14.52;10.48;;;6.90;71.10;;;;;;5035289;28;20284;-52
2022/03/31 09:00:11;;;;;;;16.35;12.13;;;6.90;70.80;;;;;;5036014;28;20262;-53
2022/03/31 09:02:38;;;;;;;13.93;12.50;;;6.80;70.20;;;;;;5036048;28;20190;-54
2022/03/31 09:05:07;;;;;;;19.08;12.00;;;6.80;69.90;;;;;;5035896;28;20209;-52
2022/03/31 09:07:34;;;;;;;14.65;12.25;;;6.90;70.30;;;;;;5036067;28;20231;-53
2022/03/31 09:10:01;;;;;;;12.73;10.73;;;7.00;69.60;;;;;;5036494;28;20229;-53
2022/03/31 09:12:38;;;;;;;15.70;11.95;;;7.10;68.90;;;;;;5036408;28;20205;-53
2022/03/31 09:15:14;;;;;;;18.13;12.93;;;7.10;68.10;;;;;;5034098;28;20197;-53
2022/03/31 09:17:41;;;;;;;14.35;12.80;;;7.10;68.10;;;;;;5036420;28;20247;-52
2022/03/31 09:20:09;;;;;;;16.65;13.95;;;7.10;67.40;;;;;;5036121;28;20224;-52
2022/03/31 09:22:48;;;;;;;16.20;12.63;;;7.10;67.20;;;;;;5035309;28;20209;-52
2022/03/31 09:25:24;;;;;;;23.98;15.13;;;7.00;67.10;;;;;;5036017;28;20208;-52
2022/03/31 09:27:51;;;;;;;22.50;14.50;;;6.80;67.60;;;;;;5035293;28;20199;-52
2022/03/31 09:30:20;;;;;;;16.58;13.13;;;6.70;68.40;;;;;;5034629;28;20370;-52
2022/03/31 09:32:49;;;;;;;17.95;14.65;;;6.70;69.30;;;;;;5036556;28;20247;-52
2022/03/31 09:35:20;;;;;;;18.00;15.05;;;6.80;69.90;;;;;;5035712;28;20211;-53
2022/03/31 09:37:49;;;;;;;17.08;13.95;;;6.90;69.40;;;;;;5036372;28;20203;-53
2022/03/31 09:40:18;;;;;;;16.50;13.77;;;6.90;69.20;;;;;;5034366;28;20217;-53
2022/03/31 09:42:56;;;;;;;20.15;14.85;;;7.00;69.10;;;;;;5035712;28;20209;-51
2022/03/31 09:45:25;;;;;;;21.15;15.02;;;7.10;69.00;;;;;;5035281;28;20193;-53
2022/03/31 09:47:52;;;;;;;19.27;14.50;;;7.10;68.80;;;;;;5035080;28;20212;-53
2022/03/31 09:50:20;;;;;;;19.05;14.70;;;7.00;69.10;;;;;;5035048;28;20231;-53
2022/03/31 09:52:49;;;;;;;14.80;13.25;;;7.00;69.10;;;;;;5034076;28;20208;-51
2022/03/31 09:55:18;;;;;;;15.52;12.85;;;6.90;69.20;;;;;;5035091;28;20234;-53
2022/03/31 09:57:48;;;;;;;17.10;12.60;;;6.90;69.70;;;;;;5034429;28;20249;-52
2022/03/31 10:00:18;;;;;;;16.05;12.40;;;6.90;69.80;;;;;;5034347;28;20229;-52
2022/03/31 10:02:47;;;;;;;16.27;11.82;;;7.10;69.20;;;;;;5034421;28;20361;-52
2022/03/31 10:05:16;;;;;;;13.13;10.75;;;7.10;68.10;;;;;;5034404;28;20677;-52
2022/03/31 10:07:46;;;;;;;14.43;11.38;;;7.00;67.50;;;;;;5033697;28;20201;-52
2022/03/31 10:10:14;;;;;;;16.20;11.45;;;7.00;67.50;;;;;;5034560;28;20641;-52
2022/03/31 10:12:48;;;;;;;17.25;11.93;;;7.00;67.70;;;;;;5034434;28;20215;-52
2022/03/31 10:15:22;;;;;;;15.45;11.75;;;7.10;67.50;;;;;;5033783;28;20209;-52
2022/03/31 10:17:50;;;;;;;12.40;11.18;;;7.10;66.60;;;;;;5034236;28;20198;-52
2022/03/31 10:20:21;;;;;;;15.18;10.40;;;7.20;66.30;;;;;;5035289;28;20228;-52
2022/03/31 10:25:42;;;;;;;9.90;8.90;;;7.50;64.90;;;;;;5033654;28;20316;-53
2022/03/31 10:28:11;;;;;;;10.85;8.88;;;7.70;63.80;;;;;;5033488;28;20208;-53
2022/03/31 10:30:39;;;;;;;9.68;8.65;;;7.80;62.90;;;;;;5035661;28;20216;-53
2022/03/31 10:33:09;;;;;;;10.25;8.07;;;7.80;61.70;;;;;;5034124;28;20202;-53
2022/03/31 10:35:39;;;;;;;9.35;8.25;;;7.70;60.90;;;;;;5033871;28;20224;-53
2022/03/31 10:38:14;;;;;;;12.27;8.25;;;7.70;61.10;;;;;;5035105;28;20578;-54
2022/03/31 10:40:43;;;;;;;9.07;8.07;;;7.70;60.70;;;;;;5035241;28;20208;-53
2022/03/31 10:43:20;;;;;;;8.23;7.40;;;7.80;60.00;;;;;;5034932;28;20233;-53
2022/03/31 10:45:48;;;;;;;9.43;7.05;;;7.80;59.20;;;;;;5034340;28;20250;-53
2022/03/31 10:48:19;;;;;;;8.88;7.90;;;8.00;59.10;;;;;;5041545;28;20283;-54
2022/03/31 10:50:47;;;;;;;10.85;7.22;;;8.20;58.20;;;;;;5038584;28;20305;-58
2022/03/31 10:53:15;;;;;;;10.48;7.60;;;8.30;57.40;;;;;;5039770;28;20205;-59
2022/03/31 10:55:49;;;;;;;8.57;6.55;;;8.40;56.70;;;;;;5037626;28;20208;-54
2022/03/31 10:58:25;;;;;;;10.70;7.22;;;8.50;55.90;;;;;;5034714;28;20268;-54
2022/03/31 11:00:53;;;;;;;9.52;7.32;;;8.60;55.70;;;;;;5034735;28;20556;-53
2022/03/31 11:03:21;;;;;;;9.30;7.35;;;8.60;54.60;;;;;;5035210;28;20462;-52
2022/03/31 11:05:49;;;;;;;6.75;6.05;;;8.50;53.80;;;;;;5033756;28;20212;-53
2022/03/31 11:08:18;;;;;;;9.45;7.15;;;8.40;53.50;;;;;;5035580;28;20235;-54
2022/03/31 11:10:47;;;;;;;7.60;6.65;;;8.40;53.80;;;;;;5035545;28;20219;-53
2022/03/31 11:13:17;;;;;;;7.60;6.90;;;8.40;53.70;;;;;;5035323;28;20229;-54
2022/03/31 11:15:47;;;;;;;11.57;6.60;;;8.50;53.40;;;;;;5034442;28;20538;-53
2022/03/31 11:18:14;;;;;;;9.23;5.90;;;8.60;53.00;;;;;;5034073;28;20202;-53
2022/03/31 11:20:43;;;;;;;11.18;7.40;;;8.70;52.60;;;;;;5034893;28;20212;-53
2022/03/31 11:23:10;;;;;;;9.20;6.53;;;8.90;52.40;;;;;;5034552;28;20232;-53
2022/03/31 11:25:43;;;;;;;9.18;5.97;;;8.90;51.40;;;;;;5034224;28;20235;-52
2022/03/31 11:28:12;;;;;;;12.20;6.60;;;8.90;51.00;;;;;;5034205;28;20460;-54
2022/03/31 11:30:41;;;;;;;7.25;5.70;;;8.90;50.60;;;;;;5032862;28;20211;-53
2022/03/31 11:33:10;;;;;;;7.88;6.30;;;8.90;50.30;;;;;;5033941;28;20257;-53
2022/03/31 11:35:38;;;;;;;7.88;6.15;;;8.90;50.20;;;;;;5033232;28;20205;-53
2022/03/31 11:38:10;;;;;;;7.32;5.97;;;8.90;49.70;;;;;;5032817;28;20213;-54
2022/03/31 11:40:41;;;;;;;6.35;5.75;;;9.00;49.30;;;;;;5033098;28;20187;-52
2022/03/31 11:43:09;;;;;;;7.13;6.20;;;8.90;48.70;;;;;;5033206;28;20621;-53
2022/03/31 11:45:38;;;;;;;9.85;6.03;;;8.90;48.80;;;;;;5032102;28;20581;-53
2022/03/31 11:48:08;;;;;;;6.32;4.82;;;9.00;48.60;;;;;;5033293;28;20257;-52
2022/03/31 11:50:38;;;;;;;9.32;5.63;;;9.10;48.40;;;;;;5032424;28;20453;-53
2022/03/31 11:53:16;;;;;;;6.53;5.75;;;9.10;48.00;;;;;;5032803;28;20202;-53
2022/03/31 11:55:44;;;;;;;7.45;6.07;;;9.10;47.20;;;;;;5032643;28;20210;-53
2022/03/31 11:58:11;;;;;;;8.75;5.50;;;8.90;47.00;;;;;;5031445;28;20452;-53
2022/03/31 12:00:49;;;;;;;9.55;6.13;;;8.90;47.10;;;;;;5032829;28;20214;-52
2022/03/31 12:03:17;;;;;;;10.90;5.32;;;8.80;46.70;;;;;;5032797;28;20190;-52
2022/03/31 12:05:45;;;;;;;9.73;6.00;;;8.70;46.50;;;;;;5031500;28;20280;-54
2022/03/31 12:08:14;;;;;;;8.07;5.88;;;8.60;46.70;;;;;;5032479;28;20211;-54
2022/03/31 12:10:41;;;;;;;8.07;5.20;;;8.70;46.70;;;;;;5031699;28;20229;-54
2022/03/31 12:13:08;;;;;;;6.28;4.55;;;8.80;46.40;;;;;;5031359;28;20216;-54
2022/03/31 12:15:35;;;;;;;17.15;11.43;;;8.80;45.80;;;;;;5032155;28;20214;-54
2022/03/31 12:18:07;;;;;;;9.48;6.10;;;8.80;45.60;;;;;;5032451;28;20214;-53
2022/03/31 12:20:35;;;;;;;16.92;11.52;;;8.80;45.80;;;;;;5031536;28;20216;-54
2022/03/31 12:23:03;;;;;;;6.30;5.13;;;8.80;45.60;;;;;;5031537;28;20676;-54
2022/03/31 12:25:33;;;;;;;16.92;8.75;;;8.90;45.30;;;;;;5032169;28;20228;-55
2022/03/31 12:28:04;;;;;;;7.50;5.28;;;8.80;45.00;;;;;;5032098;28;20191;-55
2022/03/31 12:30:47;;;;;;;5.80;4.60;;;8.90;44.80;;;;;;5034631;28;20217;-54
2022/03/31 12:33:25;;;;;;;7.97;5.30;;;8.80;44.50;;;;;;5036316;28;20197;-54
2022/03/31 12:35:57;;;;;;;5.57;5.00;;;8.80;44.70;;;;;;5037034;28;20358;-54
2022/03/31 12:38:36;;;;;;;5.90;4.72;;;8.70;45.40;;;;;;5036322;28;20721;-54
2022/03/31 12:41:07;;;;;;;8.65;6.20;;;8.80;44.80;;;;;;5033830;28;20734;-55
2022/03/31 12:43:34;;;;;;;7.03;6.32;;;8.90;44.80;;;;;;5036196;28;20201;-54
2022/03/31 12:46:13;;;;;;;6.45;4.57;;;9.00;44.50;;;;;;5033387;28;20206;-53
2022/03/31 12:48:53;;;;;;;6.25;5.10;;;9.00;43.60;;;;;;5035845;28;20225;-53
2022/03/31 12:51:20;;;;;;;8.82;4.95;;;8.90;43.90;;;;;;5035150;28;20261;-55
2022/03/31 12:53:47;;;;;;;5.93;5.40;;;8.80;44.00;;;;;;5035607;28;20211;-53
2022/03/31 12:56:27;;;;;;;6.05;5.20;;;8.90;44.00;;;;;;5036121;28;20215;-54
2022/03/31 12:58:55;;;;;;;7.95;4.88;;;8.90;43.60;;;;;;5035814;28;20230;-54